Observations for SOUTHEND-ON-SEA, United Kingdom (EGMC)

EGMC 250320Z 20003KT CAVOK M00/M02 Q1011
EGMC 250220Z 26003KT CAVOK M00/M02 Q1012
EGMC 250120Z 24003KT CAVOK M02/M03 Q1012
EGMC 250020Z 24002KT CAVOK M01/M03 Q1012
EGMC 242350Z 29003KT CAVOK M02/M04 Q1012
EGMC 242320Z 27003KT CAVOK M02/M04 Q1012
EGMC 242250Z 26003KT CAVOK M02/M04 Q1012
EGMC 242220Z 27003KT CAVOK M01/M02 Q1012
EGMC 242150Z 27002KT CAVOK M02/M03 Q1012
EGMC 242120Z 27002KT CAVOK M01/M03 Q1012
EGMC 242050Z 27003KT CAVOK M01/M03 Q1012
EGMC 242020Z 24003KT CAVOK M01/M03 Q1012
EGMC 241950Z 29002KT CAVOK M01/M03 Q1012
EGMC 241920Z 28002KT CAVOK 00/M02 Q1012 
EGMC 241850Z 32002KT CAVOK 02/M01 Q1012 
EGMC 241820Z 31003KT CAVOK 02/M01 Q1012 
EGMC 241750Z 30003KT CAVOK 03/M00 Q1012 
EGMC 241720Z 27002KT CAVOK 04/01 Q1012  
EGMC 241620Z 31004KT CAVOK 05/01 Q1012  
EGMC 241550Z 30003KT CAVOK 06/01 Q1012  
EGMC 241520Z VRB02KT CAVOK 07/01 Q1012  
EGMC 241450Z VRB02KT CAVOK 07/01 Q1011  
EGMC 241420Z 30004KT CAVOK 07/01 Q1011  
EGMC 241350Z 30003KT CAVOK 07/01 Q1011  
EGMC 241320Z VRB02KT CAVOK 07/01 Q1011  
EGMC 241250Z VRB03KT CAVOK 07/01 Q1011  
EGMC 241220Z 31004KT CAVOK 07/01 Q1011  
EGMC 241150Z VRB03KT CAVOK 08/02 Q1011  
EGMC 241120Z 31005KT CAVOK 07/01 Q1011  
EGMC 241050Z 31006KT CAVOK 07/02 Q1011  
EGMC 241020Z VRB03KT CAVOK 06/01 Q1011  
EGMC 240950Z 32006KT CAVOK 07/02 Q1010  
EGMC 240920Z 32006KT CAVOK 07/03 Q1010  
EGMC 240850Z 31005KT CAVOK 07/02 Q1009  
EGMC 240820Z VRB03KT CAVOK 06/02 Q1009  
EGMC 240750Z 27004KT CAVOK 06/02 Q1009  
EGMC 240720Z 29004KT 260V320 CAVOK 06/02 Q1009  
EGMC 240620Z 27005KT CAVOK 06/02 Q1008  
EGMC 240550Z 32004KT 9999 SCT040 07/03 Q1007
EGMC 240520Z 28002KT 9999 BKN040 07/03 Q1007
EGMC 240450Z 26005KT 9999 BKN040 07/03 Q1007
EGMC 240420Z 25004KT 9999 BKN043 06/03 Q1006
EGMC 240250Z 23003KT CAVOK 07/03 Q1006